createdAt,value
2023-01-29T00:01:51.394Z,37.65
2023-01-29T00:04:54.646Z,39.15
2023-01-29T00:07:58.856Z,36.50
2023-01-29T00:11:10.171Z,41.45
2023-01-29T00:14:11.807Z,39.08
2023-01-29T00:17:13.487Z,40.30
2023-01-29T00:20:16.041Z,38.42
2023-01-29T00:23:18.079Z,39.05
2023-01-29T00:26:19.749Z,36.35
2023-01-29T00:29:25.162Z,41.35
2023-01-29T00:32:26.749Z,39.25
2023-01-29T00:35:28.380Z,42.30
2023-01-29T00:38:29.974Z,36.17
2023-01-29T00:41:54.411Z,45.15
2023-01-29T00:44:58.541Z,43.88
2023-01-29T00:48:00.227Z,38.67
2023-01-29T00:51:02.499Z,39.22
2023-01-29T00:54:04.490Z,43.85
2023-01-29T00:57:09.379Z,40.88
2023-01-29T01:00:13.040Z,38.72
2023-01-29T01:03:14.763Z,35.95
2023-01-29T01:06:16.411Z,43.30
2023-01-29T01:09:36.261Z,40.83
2023-01-29T01:12:41.455Z,43.00
2023-01-29T01:15:43.101Z,42.33
2023-01-29T01:18:44.751Z,42.60
2023-01-29T01:21:48.389Z,40.33
2023-01-29T01:24:50.490Z,44.15
2023-01-29T01:27:56.374Z,36.20
2023-01-29T01:30:58.019Z,43.35
2023-01-29T01:33:59.903Z,41.17
2023-01-29T01:37:01.544Z,44.92
2023-01-29T01:40:18.629Z,38.43
2023-01-29T01:43:24.895Z,37.40
2023-01-29T01:46:36.922Z,40.53
2023-01-29T01:49:38.570Z,33.60
2023-01-29T01:52:42.264Z,41.20
2023-01-29T01:55:56.277Z,38.28
2023-01-29T01:59:01.481Z,40.75
2023-01-29T02:02:22.035Z,43.20
2023-01-29T02:05:41.863Z,39.92
2023-01-29T02:09:07.221Z,37.10
2023-01-29T02:12:11.386Z,36.80
2023-01-29T02:15:13.280Z,38.42
2023-01-29T02:18:16.666Z,37.70
2023-01-29T02:21:36.567Z,36.90
2023-01-29T02:24:50.320Z,33.97
2023-01-29T02:28:30.216Z,37.00
2023-01-29T02:31:35.692Z,35.33
2023-01-29T02:35:20.370Z,35.42
2023-01-29T02:38:36.042Z,29.77
2023-01-29T02:41:43.089Z,35.72
2023-01-29T02:44:56.021Z,34.50
2023-01-29T02:47:58.908Z,37.03
2023-01-29T02:51:05.958Z,36.38
2023-01-29T02:54:17.857Z,33.43
2023-01-29T02:57:29.309Z,34.15
2023-01-29T03:00:41.006Z,32.58
2023-01-29T03:03:53.478Z,32.30
2023-01-29T03:07:01.075Z,33.13
2023-01-29T03:10:02.711Z,31.88
2023-01-29T03:13:14.685Z,34.75
2023-01-29T03:16:26.078Z,35.70
2023-01-29T03:19:40.068Z,27.80
2023-01-29T03:22:41.720Z,31.35
2023-01-29T03:26:01.835Z,30.27
2023-01-29T03:29:25.516Z,29.85
2023-01-29T03:32:28.964Z,28.33
2023-01-29T03:35:35.476Z,30.13
2023-01-29T03:38:37.136Z,29.05
2023-01-29T03:41:52.930Z,28.55
2023-01-29T03:45:07.746Z,26.90
2023-01-29T03:48:32.296Z,26.07
2023-01-29T03:51:41.203Z,28.60
2023-01-29T03:55:01.773Z,27.10
2023-01-29T03:58:24.474Z,25.37
2023-01-29T04:01:37.305Z,25.58
2023-01-29T04:04:40.215Z,28.95
2023-01-29T04:07:41.791Z,27.45
2023-01-29T04:10:43.405Z,26.77
2023-01-29T04:13:45.223Z,23.90
2023-01-29T04:16:48.905Z,25.42
2023-01-29T04:19:50.603Z,24.70
2023-01-29T04:22:52.470Z,25.58
2023-01-29T04:26:15.065Z,25.35
2023-01-29T04:29:45.873Z,23.17
2023-01-29T04:33:10.742Z,23.88
2023-01-29T04:36:27.815Z,25.10
2023-01-29T04:39:39.502Z,26.35
2023-01-29T04:42:54.014Z,22.15
2023-01-29T04:46:17.664Z,25.70
2023-01-29T04:49:37.268Z,27.65
2023-01-29T04:52:53.155Z,26.53
2023-01-29T04:55:58.605Z,25.67
2023-01-29T04:59:04.213Z,26.85
2023-01-29T05:02:05.813Z,25.50
2023-01-29T05:05:08.004Z,23.95
2023-01-29T05:08:10.717Z,25.40
2023-01-29T05:11:12.830Z,23.02
2023-01-29T05:14:14.843Z,26.35
2023-01-29T05:17:18.355Z,26.50
2023-01-29T05:20:19.972Z,28.55
2023-01-29T05:23:22.204Z,26.37
2023-01-29T05:26:42.530Z,23.20
2023-01-29T05:29:45.837Z,29.25
2023-01-29T05:32:47.423Z,28.17
2023-01-29T05:35:49.464Z,26.35
2023-01-29T05:38:51.065Z,27.95
2023-01-29T05:41:52.846Z,29.58
2023-01-29T05:44:54.593Z,27.90
2023-01-29T05:47:57.945Z,23.52
2023-01-29T05:51:03.303Z,26.38
2023-01-29T05:54:05.097Z,27.87
2023-01-29T05:57:06.701Z,30.17
2023-01-29T06:00:09.408Z,27.48
2023-01-29T06:03:11.051Z,29.03
2023-01-29T06:06:12.886Z,29.55
2023-01-29T06:09:14.583Z,27.50
2023-01-29T06:12:16.192Z,26.77
2023-01-29T06:15:19.778Z,25.08
2023-01-29T06:18:21.454Z,24.33
2023-01-29T06:21:23.146Z,25.67
2023-01-29T06:24:24.805Z,25.53
2023-01-29T06:27:26.494Z,26.80
2023-01-29T06:30:28.547Z,25.65
2023-01-29T06:33:30.305Z,22.20
2023-01-29T06:36:31.948Z,26.30
2023-01-29T06:39:33.924Z,23.02
2023-01-29T06:42:35.944Z,23.90
2023-01-29T06:45:37.632Z,21.42
2023-01-29T06:48:39.293Z,21.08
2023-01-29T06:51:45.179Z,20.92
2023-01-29T06:54:47.414Z,20.47
2023-01-29T06:57:49.053Z,24.15
2023-01-29T07:00:50.711Z,21.38
2023-01-29T07:03:52.439Z,23.00
2023-01-29T07:06:54.113Z,19.08
2023-01-29T07:09:55.726Z,15.95
2023-01-29T07:12:59.196Z,21.65
2023-01-29T07:16:01.587Z,21.17
2023-01-29T07:19:03.202Z,21.13
2023-01-29T07:22:05.827Z,18.25
2023-01-29T07:25:08.180Z,20.63
2023-01-29T07:28:09.838Z,19.50
2023-01-29T07:31:12.489Z,17.23
2023-01-29T07:34:14.198Z,20.17
2023-01-29T07:37:15.798Z,17.98
2023-01-29T07:40:17.872Z,18.52
2023-01-29T07:43:19.735Z,17.75
2023-01-29T07:46:21.354Z,16.83
2023-01-29T07:49:22.973Z,17.98
2023-01-29T07:52:24.641Z,17.63
2023-01-29T07:55:26.426Z,20.50
2023-01-29T07:58:28.119Z,17.17
2023-01-29T08:01:29.843Z,18.35
2023-01-29T08:04:31.489Z,19.13
2023-01-29T08:07:33.099Z,18.25
2023-01-29T08:10:35.413Z,15.48
2023-01-29T08:13:37.057Z,17.50
2023-01-29T08:16:38.664Z,16.25
2023-01-29T08:19:40.274Z,15.07
2023-01-29T08:22:41.871Z,16.42
2023-01-29T08:25:43.606Z,13.77
2023-01-29T08:28:45.224Z,15.82
2023-01-29T08:31:46.925Z,15.02
2023-01-29T08:34:48.888Z,14.20
2023-01-29T08:37:54.942Z,13.98
2023-01-29T08:40:56.574Z,11.43
2023-01-29T08:43:58.236Z,14.38
2023-01-29T08:46:59.888Z,16.95
2023-01-29T08:50:01.475Z,16.60
2023-01-29T08:53:04.497Z,14.82
2023-01-29T08:56:06.298Z,14.33
2023-01-29T08:59:07.962Z,15.90
2023-01-29T09:02:11.251Z,14.30
2023-01-29T09:05:12.934Z,13.47
2023-01-29T09:08:15.563Z,13.63
2023-01-29T09:11:17.278Z,13.93
2023-01-29T09:14:19.101Z,14.43
2023-01-29T09:17:20.731Z,17.20
2023-01-29T09:20:26.150Z,14.00
2023-01-29T09:23:27.871Z,14.95
2023-01-29T09:26:29.500Z,14.27
2023-01-29T09:29:31.121Z,18.63
2023-01-29T09:36:00.094Z,13.20
2023-01-29T09:39:01.849Z,15.05
2023-01-29T09:42:24.331Z,14.77
2023-01-29T09:45:26.831Z,15.02
2023-01-29T09:48:30.196Z,12.85
2023-01-29T09:51:40.239Z,11.60
2023-01-29T09:54:55.903Z,14.98
2023-01-29T09:58:06.329Z,14.30
2023-01-29T10:01:35.506Z,12.48
2023-01-29T10:05:18.547Z,14.07
2023-01-29T10:08:32.578Z,14.23
2023-01-29T10:11:51.126Z,12.07
2023-01-29T10:15:17.660Z,11.40
2023-01-29T10:18:33.986Z,12.45
2023-01-29T10:21:44.813Z,15.07
2023-01-29T10:25:16.804Z,12.63
2023-01-29T10:28:19.804Z,13.05
2023-01-29T10:31:38.653Z,13.13
2023-01-29T10:34:46.921Z,13.32
2023-01-29T10:37:52.147Z,14.32
2023-01-29T10:41:08.184Z,15.23
2023-01-29T10:44:31.587Z,12.27
2023-01-29T10:47:52.686Z,14.35
2023-01-29T10:51:00.249Z,16.33
2023-01-29T10:54:28.943Z,13.50
2023-01-29T10:57:42.596Z,14.63
2023-01-29T11:00:44.220Z,13.07
2023-01-29T11:03:45.940Z,12.90
2023-01-29T11:06:51.182Z,15.57
2023-01-29T11:09:58.026Z,13.07
2023-01-29T11:12:59.660Z,15.57
2023-01-29T11:16:01.278Z,12.00
2023-01-29T11:19:03.050Z,13.90
2023-01-29T11:22:04.692Z,12.55
2023-01-29T11:25:17.349Z,12.55
2023-01-29T11:28:39.748Z,14.85
2023-01-29T11:31:41.473Z,15.75
2023-01-29T11:35:02.646Z,15.07
2023-01-29T11:38:27.768Z,14.93
2023-01-29T11:41:29.364Z,14.32
2023-01-29T11:44:38.415Z,12.50
2023-01-29T11:47:40.043Z,15.88
2023-01-29T11:50:41.694Z,13.32
2023-01-29T11:53:44.860Z,15.40
2023-01-29T11:56:46.578Z,13.43
2023-01-29T11:59:50.409Z,14.05
2023-01-29T12:02:58.328Z,11.60
2023-01-29T12:06:20.476Z,12.20
2023-01-29T12:09:32.868Z,12.38
2023-01-29T12:12:44.314Z,11.93
2023-01-29T12:15:46.076Z,11.33
2023-01-29T12:19:26.578Z,10.90
2023-01-29T12:22:44.150Z,12.65
2023-01-29T12:26:14.162Z,11.27
2023-01-29T12:29:28.189Z,10.80
2023-01-29T12:32:45.620Z,13.52
2023-01-29T12:35:56.354Z,11.85
2023-01-29T12:39:03.294Z,11.33
2023-01-29T12:42:17.260Z,13.70
2023-01-29T12:45:19.938Z,11.00
2023-01-29T12:48:25.549Z,11.95
2023-01-29T12:51:33.863Z,12.38
2023-01-29T12:54:41.686Z,12.10
2023-01-29T12:58:09.491Z,11.82
2023-01-29T13:01:32.906Z,12.33
2023-01-29T13:04:38.363Z,10.05
2023-01-29T13:07:42.298Z,12.40
2023-01-29T13:10:49.839Z,11.43
2023-01-29T13:13:59.785Z,12.35
2023-01-29T13:17:21.619Z,11.60
2023-01-29T13:20:25.851Z,12.65
2023-01-29T13:23:37.584Z,12.48
2023-01-29T13:26:39.264Z,10.38
2023-01-29T13:29:40.925Z,10.70
2023-01-29T13:32:42.587Z,11.37
2023-01-29T13:35:45.181Z,11.27
2023-01-29T13:38:47.619Z,11.60
2023-01-29T13:41:49.278Z,13.40
2023-01-29T13:44:52.582Z,12.45
2023-01-29T13:47:54.235Z,12.57
2023-01-29T13:50:56.597Z,13.32
2023-01-29T13:54:06.522Z,12.45
2023-01-29T13:57:17.235Z,14.27
2023-01-29T14:00:21.865Z,13.88
2023-01-29T14:03:23.561Z,11.00
2023-01-29T14:06:36.758Z,11.85
2023-01-29T14:09:41.733Z,11.15
2023-01-29T14:12:43.521Z,13.57
2023-01-29T14:15:46.411Z,13.45
2023-01-29T14:18:58.970Z,12.80
2023-01-29T14:22:00.565Z,14.82
2023-01-29T14:25:04.047Z,13.25
2023-01-29T14:28:05.803Z,12.63
2023-01-29T14:31:07.756Z,14.82
2023-01-29T14:34:20.475Z,14.50
2023-01-29T14:37:40.470Z,12.82
2023-01-29T14:40:45.024Z,14.77
2023-01-29T14:43:46.618Z,12.53
2023-01-29T14:46:48.226Z,15.63
2023-01-29T14:49:56.676Z,14.90
2023-01-29T14:53:20.233Z,12.73
2023-01-29T14:56:31.483Z,14.05
2023-01-29T14:59:34.890Z,13.20
2023-01-29T15:02:41.373Z,16.67
2023-01-29T15:05:43.021Z,13.97
2023-01-29T15:08:49.876Z,16.08
2023-01-29T15:11:59.027Z,13.88
2023-01-29T15:15:08.235Z,13.60
2023-01-29T15:18:15.319Z,13.88
2023-01-29T15:21:18.189Z,14.57
2023-01-29T15:24:19.834Z,16.95
2023-01-29T15:27:21.469Z,16.33
2023-01-29T15:30:26.293Z,12.02
2023-01-29T15:33:28.010Z,11.88
2023-01-29T15:36:30.600Z,13.73
2023-01-29T15:39:32.282Z,18.95
2023-01-29T15:42:48.536Z,13.32
2023-01-29T15:45:54.051Z,16.47
2023-01-29T15:48:57.670Z,15.57
2023-01-29T15:52:00.962Z,16.02
2023-01-29T15:55:05.614Z,16.83
2023-01-29T15:58:07.850Z,16.30
2023-01-29T16:01:09.739Z,18.50
2023-01-29T16:04:18.155Z,16.48
2023-01-29T16:07:21.094Z,18.40
2023-01-29T16:10:24.661Z,18.73
2023-01-29T16:13:31.026Z,19.73
2023-01-29T16:16:32.736Z,17.93
2023-01-29T16:19:34.501Z,16.63
2023-01-29T16:22:36.998Z,17.25
2023-01-29T16:25:38.708Z,18.17
2023-01-29T16:28:43.740Z,15.13
2023-01-29T16:31:46.036Z,18.38
2023-01-29T16:34:48.783Z,16.92
2023-01-29T16:37:50.541Z,19.53
2023-01-29T16:41:05.609Z,19.60
2023-01-29T16:44:16.425Z,16.50
2023-01-29T16:47:27.591Z,15.17
2023-01-29T16:50:35.918Z,15.43
2023-01-29T16:53:39.907Z,19.30
2023-01-29T16:56:42.759Z,18.58
2023-01-29T16:59:48.633Z,20.73
2023-01-29T17:02:51.609Z,21.10
2023-01-29T17:05:53.241Z,17.55
2023-01-29T17:08:54.852Z,22.30
2023-01-29T17:11:57.792Z,20.05
2023-01-29T17:15:01.276Z,21.23
2023-01-29T17:18:03.242Z,24.13
2023-01-29T17:21:04.960Z,21.30
2023-01-29T17:24:06.915Z,18.23
2023-01-29T17:27:16.999Z,20.20
2023-01-29T17:30:19.945Z,22.73
2023-01-29T17:33:26.063Z,22.55
2023-01-29T17:36:28.005Z,24.85
2023-01-29T17:39:29.591Z,19.83
2023-01-29T17:42:31.253Z,18.80
2023-01-29T17:45:32.969Z,18.63
2023-01-29T17:48:34.623Z,20.20
2023-01-29T17:51:36.271Z,19.58
2023-01-29T17:54:37.955Z,19.45
2023-01-29T17:57:39.536Z,18.23
2023-01-29T18:00:41.119Z,18.25
2023-01-29T18:03:43.776Z,20.58
2023-01-29T18:06:47.860Z,16.42
2023-01-29T18:09:49.486Z,19.53
2023-01-29T18:12:51.265Z,18.58
2023-01-29T18:15:52.908Z,18.42
2023-01-29T18:18:54.630Z,16.83
2023-01-29T18:21:56.299Z,19.08
2023-01-29T18:24:57.927Z,18.77
2023-01-29T18:27:59.672Z,18.58
2023-01-29T18:31:06.765Z,18.67
2023-01-29T18:34:08.564Z,17.77
2023-01-29T18:37:12.203Z,20.23
2023-01-29T18:40:17.287Z,20.77
2023-01-29T18:43:19.023Z,19.02
2023-01-29T18:46:20.844Z,18.55
2023-01-29T18:49:22.499Z,18.37
2023-01-29T18:52:24.268Z,17.67
2023-01-29T18:55:27.043Z,19.45
2023-01-29T18:58:36.052Z,22.88
2023-01-29T19:01:39.097Z,19.17
2023-01-29T19:04:40.937Z,22.27
2023-01-29T19:07:42.541Z,20.73
2023-01-29T19:10:44.462Z,20.23
2023-01-29T19:13:48.016Z,19.15
2023-01-29T19:16:50.172Z,18.88
2023-01-29T19:19:51.809Z,19.83
2023-01-29T19:22:53.426Z,19.25
2023-01-29T19:25:57.111Z,18.60
2023-01-29T19:28:58.738Z,18.88
2023-01-29T19:32:00.421Z,16.85
2023-01-29T19:35:02.087Z,19.15
2023-01-29T19:38:04.175Z,19.25
2023-01-29T19:41:05.863Z,17.90
2023-01-29T19:44:07.730Z,17.50
2023-01-29T19:47:09.470Z,20.42
2023-01-29T19:50:11.564Z,21.27
2023-01-29T19:53:13.275Z,21.40
2023-01-29T19:56:16.392Z,19.58
2023-01-29T19:59:18.033Z,22.23
2023-01-29T20:02:19.719Z,19.67
2023-01-29T20:05:21.352Z,19.77
2023-01-29T20:08:24.007Z,20.23
2023-01-29T20:11:25.703Z,23.03
2023-01-29T20:14:27.287Z,23.88
2023-01-29T20:17:32.698Z,22.70
2023-01-29T20:20:34.280Z,23.87
2023-01-29T20:23:38.403Z,21.42
2023-01-29T20:26:40.660Z,24.27
2023-01-29T20:29:43.749Z,26.77
2023-01-29T20:32:45.330Z,30.63
2023-01-29T20:35:58.556Z,32.72
2023-01-29T20:39:00.218Z,27.58
2023-01-29T20:42:01.974Z,29.50
2023-01-29T20:45:03.882Z,34.67
2023-01-29T20:48:08.045Z,27.95
2023-01-29T20:51:15.681Z,28.33
2023-01-29T20:54:17.424Z,24.60
2023-01-29T20:57:19.199Z,26.73
2023-01-29T21:00:21.047Z,25.58
2023-01-29T21:03:22.761Z,22.27
2023-01-29T21:06:25.501Z,24.00
2023-01-29T21:09:27.148Z,21.65
2023-01-29T21:12:28.795Z,25.50
2023-01-29T21:15:30.633Z,22.13
2023-01-29T21:18:32.403Z,21.50
2023-01-29T21:21:34.732Z,22.50
2023-01-29T21:24:36.438Z,21.35
2023-01-29T21:27:38.146Z,21.10
2023-01-29T21:30:39.863Z,21.65
2023-01-29T21:33:45.689Z,22.88
2023-01-29T21:36:47.316Z,25.77
2023-01-29T21:39:49.089Z,23.92
2023-01-29T21:43:09.841Z,22.80
2023-01-29T21:46:11.854Z,26.23
2023-01-29T21:49:13.736Z,24.48
2023-01-29T21:52:15.540Z,23.73
2023-01-29T21:55:17.192Z,22.50
2023-01-29T21:58:20.894Z,19.90
2023-01-29T22:01:37.830Z,25.85
2023-01-29T22:04:40.867Z,24.52
2023-01-29T22:07:42.688Z,22.73
2023-01-29T22:10:44.581Z,23.65
2023-01-29T22:13:46.923Z,28.00
2023-01-29T22:16:48.604Z,32.90
2023-01-29T22:19:50.271Z,30.85
2023-01-29T22:22:51.891Z,33.00
2023-01-29T22:25:53.759Z,33.22
2023-01-29T22:28:55.371Z,32.70
2023-01-29T22:31:57.031Z,32.85
2023-01-29T22:34:58.663Z,32.53
2023-01-29T22:38:00.246Z,33.15
2023-01-29T22:41:01.881Z,31.77
2023-01-29T22:44:03.539Z,27.97
2023-01-29T22:47:05.211Z,29.38
2023-01-29T22:50:07.174Z,28.70
2023-01-29T22:53:08.913Z,25.60
2023-01-29T22:56:11.366Z,24.48
2023-01-29T22:59:12.960Z,27.60
2023-01-29T23:02:14.598Z,22.10
2023-01-29T23:05:16.997Z,30.63
2023-01-29T23:08:18.654Z,24.10
2023-01-29T23:11:21.017Z,27.50
2023-01-29T23:14:22.624Z,27.03
2023-01-29T23:17:24.279Z,22.40
2023-01-29T23:20:27.183Z,22.25
2023-01-29T23:23:29.495Z,25.20
2023-01-29T23:26:49.369Z,21.48
2023-01-29T23:29:50.986Z,22.42
2023-01-29T23:32:52.611Z,23.42
2023-01-29T23:35:55.226Z,21.67
2023-01-29T23:38:56.922Z,22.63
2023-01-29T23:41:58.629Z,21.75
2023-01-29T23:45:00.239Z,20.77
2023-01-29T23:48:01.849Z,22.27
2023-01-29T23:51:03.736Z,22.83
2023-01-29T23:54:05.553Z,20.97
2023-01-29T23:57:07.196Z,22.80
